createdAt,value
2022-08-21T00:00:35.199Z,5.03
2022-08-21T00:03:06.298Z,4.75
2022-08-21T00:05:47.653Z,4.85
2022-08-21T00:08:14.806Z,4.82
2022-08-21T00:10:42.337Z,4.43
2022-08-21T00:13:10.060Z,4.80
2022-08-21T00:15:39.520Z,5.15
2022-08-21T00:18:08.690Z,5.63
2022-08-21T00:20:36.069Z,5.18
2022-08-21T00:23:03.376Z,4.90
2022-08-21T00:25:31.204Z,5.13
2022-08-21T00:27:58.548Z,5.13
2022-08-21T00:30:27.513Z,4.75
2022-08-21T00:32:58.456Z,4.88
2022-08-21T00:35:32.974Z,4.65
2022-08-21T00:38:04.823Z,4.60
2022-08-21T00:40:50.241Z,4.25
2022-08-21T00:43:20.659Z,4.43
2022-08-21T00:45:48.325Z,4.35
2022-08-21T00:48:15.862Z,4.63
2022-08-21T00:50:51.288Z,4.72
2022-08-21T00:53:18.598Z,4.70
2022-08-21T00:55:46.613Z,4.88
2022-08-21T00:58:15.399Z,4.85
2022-08-21T01:00:49.113Z,5.03
2022-08-21T01:03:23.729Z,4.78
2022-08-21T01:05:55.303Z,5.43
2022-08-21T01:08:24.396Z,4.88
2022-08-21T01:10:56.719Z,5.00
2022-08-21T01:13:26.440Z,5.32
2022-08-21T01:15:56.505Z,5.55
2022-08-21T01:18:25.685Z,5.30
2022-08-21T01:21:14.947Z,5.50
2022-08-21T01:23:45.813Z,5.18
2022-08-21T01:26:17.363Z,5.43
2022-08-21T01:28:59.327Z,5.97
2022-08-21T01:31:30.476Z,5.80
2022-08-21T01:33:57.763Z,5.03
2022-08-21T01:36:26.773Z,6.47
2022-08-21T01:38:53.812Z,6.38
2022-08-21T01:41:20.952Z,6.15
2022-08-21T01:43:48.297Z,5.90
2022-08-21T01:46:16.002Z,5.65
2022-08-21T01:48:43.913Z,6.53
2022-08-21T01:51:12.899Z,6.15
2022-08-21T01:53:40.081Z,5.72
2022-08-21T01:56:12.670Z,5.60
2022-08-21T01:58:45.361Z,5.93
2022-08-21T02:01:12.872Z,6.53
2022-08-21T02:03:41.757Z,6.40
2022-08-21T02:06:14.806Z,6.43
2022-08-21T02:08:41.840Z,6.20
2022-08-21T02:11:08.953Z,6.22
2022-08-21T02:13:36.173Z,6.43
2022-08-21T02:16:03.523Z,6.68
2022-08-21T02:18:30.851Z,6.30
2022-08-21T02:20:57.860Z,6.70
2022-08-21T02:23:27.000Z,6.13
2022-08-21T02:25:58.089Z,6.30
2022-08-21T02:28:29.451Z,7.15
2022-08-21T02:30:58.050Z,7.18
2022-08-21T02:33:27.621Z,7.43
2022-08-21T02:35:55.268Z,6.72
2022-08-21T02:38:26.322Z,6.82
2022-08-21T02:40:55.222Z,6.30
2022-08-21T02:43:25.248Z,6.40
2022-08-21T02:45:57.694Z,7.03
2022-08-21T02:48:28.356Z,5.55
2022-08-21T02:51:00.345Z,7.97
2022-08-21T02:53:30.851Z,5.95
2022-08-21T02:56:00.535Z,6.63
2022-08-21T02:58:31.323Z,6.00
2022-08-21T03:00:59.303Z,7.18
2022-08-21T03:03:30.496Z,6.45
2022-08-21T03:05:57.757Z,6.65
2022-08-21T03:08:27.848Z,6.97
2022-08-21T03:10:56.627Z,6.38
2022-08-21T03:13:27.133Z,6.40
2022-08-21T03:15:55.578Z,5.60
2022-08-21T03:18:30.785Z,6.53
2022-08-21T03:20:57.894Z,6.78
2022-08-21T03:23:25.358Z,6.80
2022-08-21T03:26:00.553Z,6.95
2022-08-21T03:28:28.124Z,6.28
2022-08-21T03:30:57.179Z,6.38
2022-08-21T03:33:27.063Z,6.15
2022-08-21T03:36:01.704Z,6.65
2022-08-21T03:38:31.668Z,6.35
2022-08-21T03:41:00.959Z,7.15
2022-08-21T03:43:32.646Z,6.68
2022-08-21T03:46:04.496Z,7.15
2022-08-21T03:48:36.563Z,7.13
2022-08-21T03:51:04.697Z,6.50
2022-08-21T03:53:31.836Z,6.15
2022-08-21T03:56:00.211Z,6.93
2022-08-21T03:58:30.501Z,6.97
2022-08-21T04:01:00.246Z,7.28
2022-08-21T04:03:30.836Z,6.68
2022-08-21T04:05:58.202Z,8.13
2022-08-21T04:08:26.865Z,7.07
2022-08-21T04:10:57.743Z,6.65
2022-08-21T04:13:26.295Z,7.20
2022-08-21T04:15:53.961Z,7.15
2022-08-21T04:18:22.297Z,7.32
2022-08-21T04:20:54.051Z,7.80
2022-08-21T04:23:24.703Z,7.72
2022-08-21T04:25:56.969Z,7.95
2022-08-21T04:28:29.052Z,8.23
2022-08-21T04:30:57.853Z,7.82
2022-08-21T04:33:26.358Z,7.82
2022-08-21T04:35:53.845Z,7.70
2022-08-21T04:38:23.338Z,8.82
2022-08-21T04:40:52.143Z,7.93
2022-08-21T04:43:20.530Z,7.93
2022-08-21T04:45:50.270Z,8.38
2022-08-21T04:48:21.136Z,8.02
2022-08-21T04:50:57.099Z,8.23
2022-08-21T04:53:43.977Z,7.65
2022-08-21T04:56:16.331Z,8.52
2022-08-21T04:58:44.011Z,8.90
2022-08-21T05:01:16.959Z,7.72
2022-08-21T05:03:48.155Z,8.68
2022-08-21T05:06:16.610Z,7.65
2022-08-21T05:08:47.137Z,8.25
2022-08-21T05:11:14.197Z,8.32
2022-08-21T05:13:44.910Z,8.63
2022-08-21T05:16:12.030Z,8.23
2022-08-21T05:18:39.667Z,8.57
2022-08-21T05:21:06.694Z,9.38
2022-08-21T05:23:33.790Z,8.95
2022-08-21T05:26:02.054Z,9.57
2022-08-21T05:28:30.343Z,9.18
2022-08-21T05:31:00.734Z,9.48
2022-08-21T05:33:27.803Z,8.93
2022-08-21T05:35:59.252Z,9.30
2022-08-21T05:38:29.555Z,9.65
2022-08-21T05:40:56.818Z,8.63
2022-08-21T05:43:23.887Z,8.27
2022-08-21T05:45:50.973Z,8.00
2022-08-21T05:48:22.076Z,8.32
2022-08-21T05:50:53.607Z,8.90
2022-08-21T05:53:23.531Z,8.65
2022-08-21T05:55:52.310Z,8.65
2022-08-21T05:58:22.432Z,8.32
2022-08-21T06:01:00.662Z,9.25
2022-08-21T06:03:30.618Z,7.82
2022-08-21T06:05:59.475Z,7.40
2022-08-21T06:08:27.810Z,7.55
2022-08-21T06:10:59.817Z,7.78
2022-08-21T06:13:27.978Z,7.50
2022-08-21T06:16:16.426Z,7.63
2022-08-21T06:18:45.507Z,6.65
2022-08-21T06:21:14.586Z,7.85
2022-08-21T06:23:42.377Z,7.57
2022-08-21T06:26:11.177Z,7.47
2022-08-21T06:28:38.779Z,6.97
2022-08-21T06:31:15.265Z,5.95
2022-08-21T06:33:42.383Z,6.00
2022-08-21T06:36:10.326Z,5.88
2022-08-21T06:38:37.971Z,5.97
2022-08-21T06:41:06.527Z,7.05
2022-08-21T06:43:39.866Z,6.35
2022-08-21T06:46:08.674Z,5.65
2022-08-21T06:48:36.073Z,6.65
2022-08-21T06:51:03.743Z,6.18
2022-08-21T06:53:30.798Z,5.50
2022-08-21T06:55:57.835Z,5.40
2022-08-21T06:58:27.386Z,5.82
2022-08-21T07:01:00.169Z,6.07
2022-08-21T07:03:34.125Z,5.05
2022-08-21T07:06:01.299Z,5.28
2022-08-21T07:08:29.263Z,4.72
2022-08-21T07:11:01.462Z,4.90
2022-08-21T07:13:29.449Z,5.00
2022-08-21T07:16:00.397Z,4.53
2022-08-21T07:18:30.848Z,4.75
2022-08-21T07:21:00.794Z,4.90
2022-08-21T07:23:37.473Z,4.65
2022-08-21T07:26:04.869Z,4.88
2022-08-21T07:28:32.353Z,5.95
2022-08-21T07:31:01.589Z,5.13
2022-08-21T07:33:31.677Z,5.00
2022-08-21T07:35:59.458Z,4.85
2022-08-21T07:38:27.868Z,4.85
2022-08-21T07:40:57.703Z,4.82
2022-08-21T07:43:26.916Z,3.97
2022-08-21T07:45:55.244Z,4.13
2022-08-21T07:48:26.511Z,4.05
2022-08-21T07:50:53.613Z,4.78
2022-08-21T07:53:20.733Z,3.97
2022-08-21T07:55:47.791Z,4.22
2022-08-21T07:58:14.804Z,4.55
2022-08-21T08:00:41.975Z,3.88
2022-08-21T08:03:09.527Z,3.25
2022-08-21T08:05:40.828Z,3.28
2022-08-21T08:08:08.038Z,4.28
2022-08-21T08:10:35.623Z,3.63
2022-08-21T08:13:02.778Z,3.83
2022-08-21T08:15:33.342Z,3.33
2022-08-21T08:18:04.459Z,4.28
2022-08-21T08:20:31.540Z,3.70
2022-08-21T08:22:59.176Z,3.95
2022-08-21T08:25:36.917Z,3.30
2022-08-21T08:28:16.211Z,3.95
2022-08-21T08:30:47.469Z,3.63
2022-08-21T08:33:15.499Z,3.85
2022-08-21T08:35:45.973Z,3.70
2022-08-21T08:38:13.446Z,4.13
2022-08-21T08:40:52.336Z,3.13
2022-08-21T08:43:20.248Z,3.13
2022-08-21T08:45:52.385Z,4.03
2022-08-21T08:49:00.235Z,3.50
2022-08-21T08:51:48.497Z,3.20
2022-08-21T08:54:26.791Z,2.63
2022-08-21T08:59:29.447Z,2.80
2022-08-21T09:01:57.641Z,2.95
2022-08-21T09:04:30.326Z,2.80
2022-08-21T09:07:30.680Z,2.75
2022-08-21T09:10:07.037Z,2.80
2022-08-21T09:12:54.060Z,2.55
2022-08-21T09:15:55.624Z,2.83
2022-08-21T09:18:41.297Z,2.53
2022-08-21T09:21:41.881Z,2.13
2022-08-21T09:24:51.861Z,1.80
2022-08-21T09:27:22.616Z,2.30
2022-08-21T09:29:53.863Z,2.22
2022-08-21T09:32:36.614Z,2.78
2022-08-21T09:35:20.928Z,2.08
2022-08-21T09:37:50.765Z,1.50
2022-08-21T09:40:23.832Z,2.33
2022-08-21T09:43:26.509Z,2.55
2022-08-21T09:46:25.462Z,2.50
2022-08-21T09:48:56.514Z,2.00
2022-08-21T09:51:28.835Z,2.05
2022-08-21T09:54:15.016Z,2.45
2022-08-21T09:57:20.398Z,1.88
2022-08-21T09:59:48.036Z,1.95
2022-08-21T10:02:33.550Z,2.50
2022-08-21T10:05:04.133Z,2.47
2022-08-21T10:07:33.504Z,2.17
2022-08-21T10:10:02.479Z,2.25
2022-08-21T10:12:56.875Z,1.70
2022-08-21T10:15:36.881Z,2.03
2022-08-21T10:18:13.927Z,2.42
2022-08-21T10:21:09.115Z,2.50
2022-08-21T10:23:57.048Z,1.80
2022-08-21T10:26:54.355Z,2.05
2022-08-21T10:29:53.246Z,2.70
2022-08-21T10:32:41.865Z,2.83
2022-08-21T10:35:25.068Z,1.75
2022-08-21T10:38:46.225Z,1.85
2022-08-21T10:41:30.604Z,2.47
2022-08-21T10:44:09.452Z,1.75
2022-08-21T10:46:48.456Z,1.77
2022-08-21T10:49:40.894Z,2.15
2022-08-21T10:52:25.489Z,2.28
2022-08-21T10:55:09.800Z,1.92
2022-08-21T10:57:52.577Z,1.60
2022-08-21T11:00:27.602Z,1.50
2022-08-21T11:03:26.344Z,1.70
2022-08-21T11:06:01.060Z,1.45
2022-08-21T11:08:43.100Z,1.75
2022-08-21T11:11:21.645Z,2.75
2022-08-21T11:14:37.889Z,1.92
2022-08-21T11:17:12.284Z,2.22
2022-08-21T11:20:00.552Z,2.05
2022-08-21T11:23:01.521Z,1.80
2022-08-21T11:25:36.959Z,1.75
2022-08-21T11:28:23.669Z,2.00
2022-08-21T11:31:05.646Z,1.58
2022-08-21T11:33:54.451Z,1.90
2022-08-21T11:36:32.702Z,1.83
2022-08-21T11:39:53.925Z,1.20
2022-08-21T11:43:01.552Z,1.65
2022-08-21T11:46:05.344Z,2.10
2022-08-21T11:48:45.365Z,1.83
2022-08-21T11:51:18.955Z,1.42
2022-08-21T11:56:44.148Z,2.45
2022-08-21T11:59:32.151Z,1.83
2022-08-21T12:02:00.614Z,2.00
2022-08-21T12:04:33.114Z,1.80
2022-08-21T12:07:15.188Z,2.47
2022-08-21T12:09:57.216Z,2.25
2022-08-21T12:12:30.668Z,2.40
2022-08-21T12:15:20.833Z,2.50
2022-08-21T12:18:00.814Z,2.53
2022-08-21T12:20:37.618Z,2.20
2022-08-21T12:23:12.803Z,2.60
2022-08-21T12:25:44.875Z,2.17
2022-08-21T12:28:23.585Z,2.13
2022-08-21T12:30:54.910Z,2.05
2022-08-21T12:33:31.212Z,2.85
2022-08-21T12:36:10.533Z,2.35
2022-08-21T12:39:12.019Z,1.88
2022-08-21T12:41:50.356Z,2.45
2022-08-21T12:44:24.248Z,2.95
2022-08-21T12:47:03.373Z,2.60
2022-08-21T12:49:41.812Z,2.17
2022-08-21T12:52:08.799Z,2.05
2022-08-21T12:54:42.850Z,1.80
2022-08-21T12:57:19.783Z,2.00
2022-08-21T12:59:46.951Z,1.80
2022-08-21T13:02:20.778Z,1.52
2022-08-21T13:04:50.390Z,2.40
2022-08-21T13:07:27.679Z,2.75
2022-08-21T13:10:08.503Z,2.28
2022-08-21T13:12:36.939Z,2.00
2022-08-21T13:15:09.019Z,1.58
2022-08-21T13:17:42.281Z,2.70
2022-08-21T13:20:33.259Z,1.65
2022-08-21T13:23:06.849Z,2.13
2022-08-21T13:28:14.221Z,1.80
2022-08-21T13:30:53.646Z,1.70
2022-08-21T13:33:25.520Z,2.05
2022-08-21T13:38:54.453Z,1.85
2022-08-21T13:41:31.499Z,1.75
2022-08-21T13:44:07.407Z,1.70
2022-08-21T13:46:37.005Z,1.77
2022-08-21T13:49:06.994Z,1.67
2022-08-21T13:51:34.813Z,1.15
2022-08-21T13:54:02.517Z,1.92
2022-08-21T13:56:30.941Z,1.90
2022-08-21T13:59:00.639Z,1.40
2022-08-21T14:01:40.949Z,2.00
2022-08-21T14:04:20.372Z,2.30
2022-08-21T14:06:47.817Z,1.83
2022-08-21T14:09:36.676Z,1.38
2022-08-21T14:12:23.437Z,2.17
2022-08-21T14:14:54.140Z,1.75
2022-08-21T14:17:34.049Z,1.75
2022-08-21T14:20:01.833Z,1.40
2022-08-21T14:22:39.651Z,1.58
2022-08-21T14:25:12.611Z,2.17
2022-08-21T14:28:01.517Z,2.10
2022-08-21T14:30:37.426Z,1.73
2022-08-21T14:33:09.984Z,2.10
2022-08-21T14:35:37.085Z,1.52
2022-08-21T14:38:18.856Z,2.17
2022-08-21T14:40:49.785Z,1.42
2022-08-21T14:43:18.128Z,2.25
2022-08-21T14:45:45.618Z,2.08
2022-08-21T14:48:13.027Z,2.00
2022-08-21T14:50:40.504Z,1.98
2022-08-21T14:53:11.184Z,2.20
2022-08-21T14:55:58.780Z,2.22
2022-08-21T14:58:29.476Z,2.22
2022-08-21T15:00:59.414Z,2.70
2022-08-21T15:03:26.961Z,2.08
2022-08-21T15:05:59.656Z,2.05
2022-08-21T15:08:27.316Z,1.57
2022-08-21T15:11:11.189Z,1.67
2022-08-21T15:13:39.314Z,1.20
2022-08-21T15:16:06.604Z,1.67
2022-08-21T15:18:33.741Z,1.98
2022-08-21T15:21:00.808Z,1.85
2022-08-21T15:23:27.861Z,1.92
2022-08-21T15:25:56.626Z,1.98
2022-08-21T15:28:27.613Z,1.90
2022-08-21T15:31:01.620Z,1.70
2022-08-21T15:33:30.523Z,2.25
2022-08-21T15:35:57.902Z,1.60
2022-08-21T15:38:25.449Z,1.67
2022-08-21T15:40:56.643Z,1.67
2022-08-21T15:43:30.146Z,2.33
2022-08-21T15:46:01.467Z,1.60
2022-08-21T15:48:29.541Z,1.63
2022-08-21T15:50:56.966Z,1.98
2022-08-21T15:53:24.073Z,2.20
2022-08-21T15:55:51.227Z,1.83
2022-08-21T15:58:20.792Z,1.48
2022-08-21T16:00:47.976Z,1.38
2022-08-21T16:03:17.884Z,1.42
2022-08-21T16:05:46.228Z,1.63
2022-08-21T16:08:13.330Z,1.73
2022-08-21T16:10:43.944Z,1.73
2022-08-21T16:13:39.066Z,1.58
2022-08-21T16:16:06.444Z,1.52
2022-08-21T16:18:33.716Z,1.80
2022-08-21T16:21:00.791Z,1.95
2022-08-21T16:23:27.860Z,1.77
2022-08-21T16:25:57.289Z,1.50
2022-08-21T16:28:27.199Z,1.15
2022-08-21T16:30:56.826Z,1.77
2022-08-21T16:33:37.202Z,2.10
2022-08-21T16:36:05.647Z,1.40
2022-08-21T16:38:33.615Z,1.67
2022-08-21T16:41:07.136Z,1.77
2022-08-21T16:43:35.610Z,1.90
2022-08-21T16:46:03.955Z,1.80
2022-08-21T16:48:31.163Z,1.70
2022-08-21T16:50:59.290Z,1.52
2022-08-21T16:53:27.055Z,1.58
2022-08-21T16:55:54.450Z,1.70
2022-08-21T16:58:30.383Z,1.48
2022-08-21T17:00:59.631Z,1.50
2022-08-21T17:03:34.943Z,1.42
2022-08-21T17:06:02.227Z,1.85
2022-08-21T17:08:29.854Z,1.80
2022-08-21T17:10:58.330Z,1.60
2022-08-21T17:13:26.951Z,1.98
2022-08-21T17:15:54.586Z,2.53
2022-08-21T17:18:23.975Z,1.95
2022-08-21T17:20:51.337Z,1.83
2022-08-21T17:23:19.725Z,1.60
2022-08-21T17:25:49.623Z,1.67
2022-08-21T17:28:25.565Z,1.83
2022-08-21T17:30:57.438Z,1.83
2022-08-21T17:33:26.681Z,2.35
2022-08-21T17:35:54.089Z,1.70
2022-08-21T17:38:21.419Z,2.13
2022-08-21T17:40:49.077Z,1.50
2022-08-21T17:43:16.294Z,1.83
2022-08-21T17:45:45.017Z,1.67
2022-08-21T17:48:12.204Z,1.80
2022-08-21T17:50:39.804Z,1.92
2022-08-21T17:53:07.140Z,1.90
2022-08-21T17:55:34.945Z,2.05
2022-08-21T17:58:03.701Z,1.90
2022-08-21T18:00:32.286Z,1.90
2022-08-21T18:03:07.470Z,1.38
2022-08-21T18:05:35.780Z,1.45
2022-08-21T18:08:02.990Z,1.75
2022-08-21T18:10:30.861Z,2.72
2022-08-21T18:13:00.720Z,2.13
2022-08-21T18:15:31.096Z,2.20
2022-08-21T18:18:01.336Z,2.40
2022-08-21T18:20:29.321Z,2.00
2022-08-21T18:22:57.034Z,2.00
2022-08-21T18:25:24.313Z,2.50
2022-08-21T18:27:52.770Z,1.73
2022-08-21T18:30:22.957Z,2.38
2022-08-21T18:32:52.972Z,2.10
2022-08-21T18:35:20.190Z,2.75
2022-08-21T18:37:47.291Z,2.00
2022-08-21T18:40:15.680Z,2.05
2022-08-21T18:42:51.506Z,2.47
2022-08-21T18:45:30.529Z,2.70
2022-08-21T18:47:59.711Z,2.08
2022-08-21T18:50:30.067Z,2.60
2022-08-21T18:52:57.305Z,2.30
2022-08-21T18:55:25.898Z,1.70
2022-08-21T18:57:57.343Z,1.95
2022-08-21T19:00:31.622Z,2.55
2022-08-21T19:03:06.127Z,2.88
2022-08-21T19:05:35.583Z,2.35
2022-08-21T19:08:03.972Z,2.45
2022-08-21T19:10:31.072Z,2.25
2022-08-21T19:13:00.879Z,1.80
2022-08-21T19:15:31.319Z,2.17
2022-08-21T19:17:59.450Z,2.03
2022-08-21T19:20:36.675Z,2.17
2022-08-21T19:23:06.502Z,1.80
2022-08-21T19:25:34.905Z,1.85
2022-08-21T19:28:10.729Z,1.98
2022-08-21T19:30:41.041Z,1.90
2022-08-21T19:33:09.174Z,1.80
2022-08-21T19:35:38.093Z,2.50
2022-08-21T19:38:05.142Z,2.47
2022-08-21T19:40:32.288Z,2.53
2022-08-21T19:43:00.577Z,3.05
2022-08-21T19:45:32.149Z,2.65
2022-08-21T19:48:03.852Z,3.38
2022-08-21T19:50:31.815Z,2.97
2022-08-21T19:53:01.406Z,3.47
2022-08-21T19:55:29.534Z,3.22
2022-08-21T19:57:57.191Z,3.10
2022-08-21T20:00:24.599Z,3.15
2022-08-21T20:02:52.682Z,2.80
2022-08-21T20:05:19.828Z,2.20
2022-08-21T20:07:48.789Z,1.92
2022-08-21T20:10:17.441Z,2.67
2022-08-21T20:12:49.056Z,2.53
2022-08-21T20:15:19.557Z,3.28
2022-08-21T20:17:46.840Z,3.85
2022-08-21T20:20:13.883Z,3.08
2022-08-21T20:22:41.907Z,3.00
2022-08-21T20:25:09.141Z,2.83
2022-08-21T20:27:40.463Z,2.55
2022-08-21T20:30:09.022Z,3.05
2022-08-21T20:32:36.165Z,2.97
2022-08-21T20:35:05.230Z,2.17
2022-08-21T20:37:39.938Z,2.60
2022-08-21T20:40:10.559Z,2.75
2022-08-21T20:42:47.156Z,2.42
2022-08-21T20:45:35.186Z,2.53
2022-08-21T20:48:32.342Z,2.38
2022-08-21T20:51:39.562Z,2.35
2022-08-21T20:54:43.934Z,2.33
2022-08-21T20:57:21.993Z,1.92
2022-08-21T21:00:00.647Z,3.30
2022-08-21T21:02:42.752Z,2.45
2022-08-21T21:05:20.214Z,2.38
2022-08-21T21:08:11.804Z,2.63
2022-08-21T21:10:48.058Z,2.22
2022-08-21T21:13:23.976Z,2.88
2022-08-21T21:18:36.373Z,2.25
2022-08-21T21:21:20.332Z,2.67
2022-08-21T21:23:54.727Z,2.75
2022-08-21T21:26:29.205Z,3.10
2022-08-21T21:29:12.020Z,2.50
2022-08-21T21:31:41.563Z,2.25
2022-08-21T21:34:09.200Z,3.10
2022-08-21T21:37:04.640Z,2.42
2022-08-21T21:39:40.725Z,2.65
2022-08-21T21:42:44.856Z,2.95
2022-08-21T21:45:35.600Z,2.97
2022-08-21T21:48:31.780Z,2.92
2022-08-21T21:51:11.941Z,2.83
2022-08-21T21:54:11.356Z,2.90
2022-08-21T21:57:05.981Z,3.22
2022-08-21T21:59:43.929Z,2.97
2022-08-21T22:02:31.287Z,2.97
2022-08-21T22:05:06.577Z,3.10
2022-08-21T22:07:45.826Z,4.25
2022-08-21T22:10:42.907Z,3.50
2022-08-21T22:13:26.428Z,3.05
2022-08-21T22:16:05.336Z,3.00
2022-08-21T22:18:45.193Z,3.78
2022-08-21T22:21:42.524Z,3.05
2022-08-21T22:24:18.109Z,3.13
2022-08-21T22:26:50.680Z,3.40
2022-08-21T22:29:20.785Z,3.72
2022-08-21T22:32:05.651Z,3.33
2022-08-21T22:34:34.193Z,3.20
2022-08-21T22:37:06.024Z,3.55
2022-08-21T22:39:39.176Z,3.00
2022-08-21T22:42:15.968Z,2.60
2022-08-21T22:44:57.084Z,3.55
2022-08-21T22:47:48.755Z,3.40
2022-08-21T22:50:21.037Z,4.13
2022-08-21T22:52:54.608Z,3.28
2022-08-21T22:55:47.615Z,3.28
2022-08-21T22:58:17.662Z,2.80
2022-08-21T23:01:12.132Z,3.58
2022-08-21T23:03:51.375Z,3.35
2022-08-21T23:07:02.130Z,4.13
2022-08-21T23:09:45.451Z,3.00
2022-08-21T23:12:34.490Z,3.20
2022-08-21T23:15:17.912Z,3.38
2022-08-21T23:18:13.878Z,3.08
2022-08-21T23:21:31.174Z,4.80
2022-08-21T23:24:19.483Z,3.03
2022-08-21T23:27:11.750Z,3.75
2022-08-21T23:29:51.748Z,3.13
2022-08-21T23:32:47.088Z,2.92
2022-08-21T23:35:19.641Z,3.10
2022-08-21T23:37:51.882Z,2.70
2022-08-21T23:40:50.801Z,2.58
2022-08-21T23:44:02.888Z,3.17
2022-08-21T23:46:45.475Z,3.05
2022-08-21T23:49:59.550Z,3.67
2022-08-21T23:52:44.969Z,2.80
2022-08-21T23:55:14.894Z,2.85
2022-08-21T23:58:06.389Z,4.28
